sensor_id;sensor_type;location;lat;lon;timestamp;P1;durP1;ratioP1;P2;durP2;ratioP2
8958;SDS011;4514;49.476;8.484;2022-11-13T00:00:10;28.27;;;22.60;;
8958;SDS011;4514;49.476;8.484;2022-11-13T00:02:36;27.70;;;21.10;;
8958;SDS011;4514;49.476;8.484;2022-11-13T00:05:01;38.80;;;31.47;;
8958;SDS011;4514;49.476;8.484;2022-11-13T00:07:31;31.87;;;25.90;;
8958;SDS011;4514;49.476;8.484;2022-11-13T00:09:59;32.87;;;25.90;;
8958;SDS011;4514;49.476;8.484;2022-11-13T00:12:24;34.90;;;25.77;;
8958;SDS011;4514;49.476;8.484;2022-11-13T00:14:50;31.23;;;24.30;;
8958;SDS011;4514;49.476;8.484;2022-11-13T00:17:15;33.50;;;26.43;;
8958;SDS011;4514;49.476;8.484;2022-11-13T00:19:40;38.77;;;27.90;;
8958;SDS011;4514;49.476;8.484;2022-11-13T00:22:08;43.17;;;30.53;;
8958;SDS011;4514;49.476;8.484;2022-11-13T00:24:36;45.73;;;31.67;;
8958;SDS011;4514;49.476;8.484;2022-11-13T00:27:03;44.30;;;31.33;;
8958;SDS011;4514;49.476;8.484;2022-11-13T00:29:29;46.23;;;30.93;;
8958;SDS011;4514;49.476;8.484;2022-11-13T00:31:54;46.73;;;30.57;;
8958;SDS011;4514;49.476;8.484;2022-11-13T00:34:20;46.10;;;34.03;;
8958;SDS011;4514;49.476;8.484;2022-11-13T00:36:47;46.47;;;32.37;;
8958;SDS011;4514;49.476;8.484;2022-11-13T00:39:14;42.13;;;29.00;;
8958;SDS011;4514;49.476;8.484;2022-11-13T00:41:39;34.60;;;24.30;;
8958;SDS011;4514;49.476;8.484;2022-11-13T00:44:04;33.83;;;25.03;;
8958;SDS011;4514;49.476;8.484;2022-11-13T00:46:30;30.70;;;22.50;;
8958;SDS011;4514;49.476;8.484;2022-11-13T00:48:56;31.93;;;25.30;;
8958;SDS011;4514;49.476;8.484;2022-11-13T00:51:24;32.23;;;26.03;;
8958;SDS011;4514;49.476;8.484;2022-11-13T00:53:52;34.73;;;25.33;;
8958;SDS011;4514;49.476;8.484;2022-11-13T00:56:17;31.13;;;24.80;;
8958;SDS011;4514;49.476;8.484;2022-11-13T00:58:52;35.23;;;25.63;;
8958;SDS011;4514;49.476;8.484;2022-11-13T01:01:18;34.23;;;24.60;;
8958;SDS011;4514;49.476;8.484;2022-11-13T01:03:44;28.33;;;21.77;;
8958;SDS011;4514;49.476;8.484;2022-11-13T01:06:13;29.10;;;21.90;;
8958;SDS011;4514;49.476;8.484;2022-11-13T01:08:44;31.53;;;22.53;;
8958;SDS011;4514;49.476;8.484;2022-11-13T01:11:10;28.77;;;21.87;;
8958;SDS011;4514;49.476;8.484;2022-11-13T01:13:40;32.33;;;21.73;;
8958;SDS011;4514;49.476;8.484;2022-11-13T01:16:07;28.67;;;21.23;;
8958;SDS011;4514;49.476;8.484;2022-11-13T01:21:21;32.67;;;26.90;;
8958;SDS011;4514;49.476;8.484;2022-11-13T01:23:52;31.33;;;23.60;;
8958;SDS011;4514;49.476;8.484;2022-11-13T01:26:20;29.70;;;21.90;;
8958;SDS011;4514;49.476;8.484;2022-11-13T01:28:46;29.33;;;22.27;;
8958;SDS011;4514;49.476;8.484;2022-11-13T01:31:13;33.27;;;24.00;;
8958;SDS011;4514;49.476;8.484;2022-11-13T01:33:41;32.80;;;23.90;;
8958;SDS011;4514;49.476;8.484;2022-11-13T01:36:07;34.30;;;23.30;;
8958;SDS011;4514;49.476;8.484;2022-11-13T01:38:38;35.33;;;24.67;;
8958;SDS011;4514;49.476;8.484;2022-11-13T01:41:05;36.67;;;25.40;;
8958;SDS011;4514;49.476;8.484;2022-11-13T01:43:32;39.03;;;25.13;;
8958;SDS011;4514;49.476;8.484;2022-11-13T01:48:31;66.03;;;38.93;;
8958;SDS011;4514;49.476;8.484;2022-11-13T01:50:59;64.03;;;37.47;;
8958;SDS011;4514;49.476;8.484;2022-11-13T01:53:25;58.97;;;35.73;;
8958;SDS011;4514;49.476;8.484;2022-11-13T01:55:53;57.50;;;33.70;;
8958;SDS011;4514;49.476;8.484;2022-11-13T01:58:18;50.03;;;32.10;;
8958;SDS011;4514;49.476;8.484;2022-11-13T02:00:44;49.37;;;29.70;;
8958;SDS011;4514;49.476;8.484;2022-11-13T02:03:09;44.83;;;30.43;;
8958;SDS011;4514;49.476;8.484;2022-11-13T02:05:35;48.43;;;29.70;;
8958;SDS011;4514;49.476;8.484;2022-11-13T02:08:00;39.33;;;27.17;;
8958;SDS011;4514;49.476;8.484;2022-11-13T02:10:27;41.87;;;26.73;;
8958;SDS011;4514;49.476;8.484;2022-11-13T02:12:52;36.00;;;25.10;;
8958;SDS011;4514;49.476;8.484;2022-11-13T02:15:18;35.20;;;23.67;;
8958;SDS011;4514;49.476;8.484;2022-11-13T02:17:49;41.87;;;25.87;;
8958;SDS011;4514;49.476;8.484;2022-11-13T02:20:32;39.07;;;24.57;;
8958;SDS011;4514;49.476;8.484;2022-11-13T02:23:06;41.00;;;26.23;;
8958;SDS011;4514;49.476;8.484;2022-11-13T02:25:36;40.30;;;27.23;;
8958;SDS011;4514;49.476;8.484;2022-11-13T02:28:02;40.03;;;27.17;;
8958;SDS011;4514;49.476;8.484;2022-11-13T02:30:28;39.13;;;26.67;;
8958;SDS011;4514;49.476;8.484;2022-11-13T02:32:58;40.70;;;25.70;;
8958;SDS011;4514;49.476;8.484;2022-11-13T02:35:24;36.70;;;27.10;;
8958;SDS011;4514;49.476;8.484;2022-11-13T02:37:58;33.80;;;23.90;;
8958;SDS011;4514;49.476;8.484;2022-11-13T02:40:25;32.67;;;23.80;;
8958;SDS011;4514;49.476;8.484;2022-11-13T02:42:51;29.73;;;18.43;;
8958;SDS011;4514;49.476;8.484;2022-11-13T02:45:17;23.40;;;18.03;;
8958;SDS011;4514;49.476;8.484;2022-11-13T02:47:42;26.13;;;20.30;;
8958;SDS011;4514;49.476;8.484;2022-11-13T02:50:10;23.23;;;19.07;;
8958;SDS011;4514;49.476;8.484;2022-11-13T02:52:36;26.13;;;20.53;;
8958;SDS011;4514;49.476;8.484;2022-11-13T02:55:02;23.70;;;17.53;;
8958;SDS011;4514;49.476;8.484;2022-11-13T02:57:28;21.87;;;18.20;;
8958;SDS011;4514;49.476;8.484;2022-11-13T02:59:53;23.27;;;19.03;;
8958;SDS011;4514;49.476;8.484;2022-11-13T03:02:19;20.27;;;16.90;;
8958;SDS011;4514;49.476;8.484;2022-11-13T03:04:44;16.93;;;14.67;;
8958;SDS011;4514;49.476;8.484;2022-11-13T03:07:10;17.83;;;13.27;;
8958;SDS011;4514;49.476;8.484;2022-11-13T03:09:40;18.87;;;14.00;;
8958;SDS011;4514;49.476;8.484;2022-11-13T03:12:08;17.20;;;13.17;;
8958;SDS011;4514;49.476;8.484;2022-11-13T03:14:34;15.97;;;13.70;;
8958;SDS011;4514;49.476;8.484;2022-11-13T03:17:00;19.67;;;15.17;;
8958;SDS011;4514;49.476;8.484;2022-11-13T03:19:25;23.10;;;16.50;;
8958;SDS011;4514;49.476;8.484;2022-11-13T03:21:51;26.33;;;17.37;;
8958;SDS011;4514;49.476;8.484;2022-11-13T03:24:17;25.80;;;18.47;;
8958;SDS011;4514;49.476;8.484;2022-11-13T03:26:42;33.13;;;20.60;;
8958;SDS011;4514;49.476;8.484;2022-11-13T03:29:08;26.17;;;18.77;;
8958;SDS011;4514;49.476;8.484;2022-11-13T03:31:34;27.00;;;18.73;;
8958;SDS011;4514;49.476;8.484;2022-11-13T03:33:59;26.17;;;18.13;;
8958;SDS011;4514;49.476;8.484;2022-11-13T03:36:30;22.80;;;17.10;;
8958;SDS011;4514;49.476;8.484;2022-11-13T03:38:56;24.17;;;17.20;;
8958;SDS011;4514;49.476;8.484;2022-11-13T03:41:24;21.90;;;15.93;;
8958;SDS011;4514;49.476;8.484;2022-11-13T03:43:49;22.63;;;15.43;;
8958;SDS011;4514;49.476;8.484;2022-11-13T03:46:14;17.47;;;14.57;;
8958;SDS011;4514;49.476;8.484;2022-11-13T03:48:41;20.30;;;15.80;;
8958;SDS011;4514;49.476;8.484;2022-11-13T03:51:06;20.05;;;17.88;;
8958;SDS011;4514;49.476;8.484;2022-11-13T03:53:32;19.07;;;15.33;;
8958;SDS011;4514;49.476;8.484;2022-11-13T03:55:57;15.40;;;13.80;;
8958;SDS011;4514;49.476;8.484;2022-11-13T03:58:23;16.80;;;14.03;;
8958;SDS011;4514;49.476;8.484;2022-11-13T04:00:48;14.50;;;12.13;;
8958;SDS011;4514;49.476;8.484;2022-11-13T04:03:16;14.00;;;12.50;;
8958;SDS011;4514;49.476;8.484;2022-11-13T04:05:42;15.23;;;12.90;;
8958;SDS011;4514;49.476;8.484;2022-11-13T04:08:09;14.90;;;13.47;;
8958;SDS011;4514;49.476;8.484;2022-11-13T04:10:39;14.27;;;12.77;;
8958;SDS011;4514;49.476;8.484;2022-11-13T04:13:05;14.37;;;12.83;;
8958;SDS011;4514;49.476;8.484;2022-11-13T04:15:31;15.73;;;11.50;;
8958;SDS011;4514;49.476;8.484;2022-11-13T04:17:59;12.87;;;11.53;;
8958;SDS011;4514;49.476;8.484;2022-11-13T04:20:26;12.47;;;11.27;;
8958;SDS011;4514;49.476;8.484;2022-11-13T04:22:53;13.97;;;12.57;;
8958;SDS011;4514;49.476;8.484;2022-11-13T04:25:18;12.77;;;11.53;;
8958;SDS011;4514;49.476;8.484;2022-11-13T04:27:47;12.70;;;11.50;;
8958;SDS011;4514;49.476;8.484;2022-11-13T04:30:13;11.93;;;10.83;;
8958;SDS011;4514;49.476;8.484;2022-11-13T04:32:39;12.50;;;11.27;;
8958;SDS011;4514;49.476;8.484;2022-11-13T04:35:05;11.77;;;10.57;;
8958;SDS011;4514;49.476;8.484;2022-11-13T04:37:31;12.27;;;11.07;;
8958;SDS011;4514;49.476;8.484;2022-11-13T04:39:57;12.23;;;11.10;;
8958;SDS011;4514;49.476;8.484;2022-11-13T04:42:23;12.10;;;10.90;;
8958;SDS011;4514;49.476;8.484;2022-11-13T04:45:09;11.60;;;10.50;;
8958;SDS011;4514;49.476;8.484;2022-11-13T04:47:37;11.07;;;10.07;;
8958;SDS011;4514;49.476;8.484;2022-11-13T04:50:03;11.33;;;10.27;;
8958;SDS011;4514;49.476;8.484;2022-11-13T04:52:28;11.70;;;10.60;;
8958;SDS011;4514;49.476;8.484;2022-11-13T04:54:54;12.67;;;11.37;;
8958;SDS011;4514;49.476;8.484;2022-11-13T04:57:20;13.07;;;11.80;;
8958;SDS011;4514;49.476;8.484;2022-11-13T04:59:45;13.87;;;12.40;;
8958;SDS011;4514;49.476;8.484;2022-11-13T05:02:10;14.43;;;12.93;;
8958;SDS011;4514;49.476;8.484;2022-11-13T05:04:36;14.00;;;12.60;;
8958;SDS011;4514;49.476;8.484;2022-11-13T05:07:01;12.87;;;11.60;;
8958;SDS011;4514;49.476;8.484;2022-11-13T05:09:27;13.17;;;11.80;;
8958;SDS011;4514;49.476;8.484;2022-11-13T05:11:52;16.17;;;11.47;;
8958;SDS011;4514;49.476;8.484;2022-11-13T05:14:18;12.70;;;11.40;;
8958;SDS011;4514;49.476;8.484;2022-11-13T05:16:43;12.20;;;11.10;;
8958;SDS011;4514;49.476;8.484;2022-11-13T05:19:11;12.33;;;11.17;;
8958;SDS011;4514;49.476;8.484;2022-11-13T05:21:41;13.00;;;11.60;;
8958;SDS011;4514;49.476;8.484;2022-11-13T05:24:08;12.00;;;10.90;;
8958;SDS011;4514;49.476;8.484;2022-11-13T05:26:39;12.30;;;11.10;;
8958;SDS011;4514;49.476;8.484;2022-11-13T05:29:04;11.87;;;10.67;;
8958;SDS011;4514;49.476;8.484;2022-11-13T05:31:30;10.93;;;9.90;;
8958;SDS011;4514;49.476;8.484;2022-11-13T05:33:55;11.30;;;10.00;;
8958;SDS011;4514;49.476;8.484;2022-11-13T05:36:21;11.37;;;10.10;;
8958;SDS011;4514;49.476;8.484;2022-11-13T05:38:48;11.83;;;10.57;;
8958;SDS011;4514;49.476;8.484;2022-11-13T05:41:16;14.13;;;9.60;;
8958;SDS011;4514;49.476;8.484;2022-11-13T05:43:45;13.33;;;9.33;;
8958;SDS011;4514;49.476;8.484;2022-11-13T05:48:41;10.63;;;9.63;;
8958;SDS011;4514;49.476;8.484;2022-11-13T05:51:15;10.73;;;9.63;;
8958;SDS011;4514;49.476;8.484;2022-11-13T05:53:42;10.57;;;9.57;;
8958;SDS011;4514;49.476;8.484;2022-11-13T05:56:09;11.75;;;10.60;;
8958;SDS011;4514;49.476;8.484;2022-11-13T05:58:43;10.53;;;9.53;;
8958;SDS011;4514;49.476;8.484;2022-11-13T06:01:16;14.17;;;9.83;;
8958;SDS011;4514;49.476;8.484;2022-11-13T06:03:43;11.33;;;9.17;;
8958;SDS011;4514;49.476;8.484;2022-11-13T06:06:10;11.53;;;9.57;;
8958;SDS011;4514;49.476;8.484;2022-11-13T06:08:41;11.60;;;9.27;;
8958;SDS011;4514;49.476;8.484;2022-11-13T06:11:10;11.00;;;9.53;;
8958;SDS011;4514;49.476;8.484;2022-11-13T06:13:37;18.47;;;10.67;;
8958;SDS011;4514;49.476;8.484;2022-11-13T06:16:13;10.70;;;9.70;;
8958;SDS011;4514;49.476;8.484;2022-11-13T06:18:41;10.50;;;9.50;;
8958;SDS011;4514;49.476;8.484;2022-11-13T06:21:29;12.90;;;11.60;;
8958;SDS011;4514;49.476;8.484;2022-11-13T06:23:54;11.50;;;10.40;;
8958;SDS011;4514;49.476;8.484;2022-11-13T06:26:24;11.47;;;10.17;;
8958;SDS011;4514;49.476;8.484;2022-11-13T06:28:54;11.27;;;10.10;;
8958;SDS011;4514;49.476;8.484;2022-11-13T06:31:24;11.87;;;9.40;;
8958;SDS011;4514;49.476;8.484;2022-11-13T06:33:52;10.43;;;9.33;;
8958;SDS011;4514;49.476;8.484;2022-11-13T06:36:19;13.13;;;9.70;;
8958;SDS011;4514;49.476;8.484;2022-11-13T06:38:49;12.20;;;9.83;;
8958;SDS011;4514;49.476;8.484;2022-11-13T06:41:15;10.40;;;9.23;;
8958;SDS011;4514;49.476;8.484;2022-11-13T06:43:43;10.77;;;9.73;;
8958;SDS011;4514;49.476;8.484;2022-11-13T06:46:27;14.60;;;10.20;;
8958;SDS011;4514;49.476;8.484;2022-11-13T06:48:54;10.27;;;9.27;;
8958;SDS011;4514;49.476;8.484;2022-11-13T06:51:23;10.87;;;9.17;;
8958;SDS011;4514;49.476;8.484;2022-11-13T06:53:50;10.30;;;9.30;;
8958;SDS011;4514;49.476;8.484;2022-11-13T06:56:16;10.83;;;9.73;;
8958;SDS011;4514;49.476;8.484;2022-11-13T06:58:41;11.13;;;9.97;;
8958;SDS011;4514;49.476;8.484;2022-11-13T07:01:13;11.07;;;10.07;;
8958;SDS011;4514;49.476;8.484;2022-11-13T07:03:43;11.27;;;10.17;;
8958;SDS011;4514;49.476;8.484;2022-11-13T07:06:10;11.70;;;10.50;;
8958;SDS011;4514;49.476;8.484;2022-11-13T07:08:43;12.67;;;10.70;;
8958;SDS011;4514;49.476;8.484;2022-11-13T07:11:09;12.87;;;9.33;;
8958;SDS011;4514;49.476;8.484;2022-11-13T07:13:36;11.03;;;9.83;;
8958;SDS011;4514;49.476;8.484;2022-11-13T07:16:03;11.13;;;9.37;;
8958;SDS011;4514;49.476;8.484;2022-11-13T07:18:29;10.37;;;9.20;;
8958;SDS011;4514;49.476;8.484;2022-11-13T07:20:55;10.07;;;9.07;;
8958;SDS011;4514;49.476;8.484;2022-11-13T07:23:21;13.37;;;9.27;;
8958;SDS011;4514;49.476;8.484;2022-11-13T07:25:46;10.70;;;9.70;;
8958;SDS011;4514;49.476;8.484;2022-11-13T07:28:12;10.33;;;9.33;;
8958;SDS011;4514;49.476;8.484;2022-11-13T07:30:37;10.63;;;9.53;;
8958;SDS011;4514;49.476;8.484;2022-11-13T07:33:03;11.33;;;10.23;;
8958;SDS011;4514;49.476;8.484;2022-11-13T07:35:28;10.67;;;9.63;;
8958;SDS011;4514;49.476;8.484;2022-11-13T07:37:54;13.90;;;10.30;;
8958;SDS011;4514;49.476;8.484;2022-11-13T07:40:20;11.03;;;10.00;;
8958;SDS011;4514;49.476;8.484;2022-11-13T07:42:45;10.50;;;9.40;;
8958;SDS011;4514;49.476;8.484;2022-11-13T07:45:11;10.97;;;9.80;;
8958;SDS011;4514;49.476;8.484;2022-11-13T07:47:38;10.87;;;9.60;;
8958;SDS011;4514;49.476;8.484;2022-11-13T07:50:04;11.23;;;10.03;;
8958;SDS011;4514;49.476;8.484;2022-11-13T07:52:30;11.17;;;10.07;;
8958;SDS011;4514;49.476;8.484;2022-11-13T07:54:55;12.20;;;10.27;;
8958;SDS011;4514;49.476;8.484;2022-11-13T07:57:20;11.73;;;10.53;;
8958;SDS011;4514;49.476;8.484;2022-11-13T07:59:49;11.33;;;10.23;;
8958;SDS011;4514;49.476;8.484;2022-11-13T08:02:19;11.00;;;9.90;;
8958;SDS011;4514;49.476;8.484;2022-11-13T08:04:45;11.47;;;9.83;;
8958;SDS011;4514;49.476;8.484;2022-11-13T08:07:10;10.57;;;9.57;;
8958;SDS011;4514;49.476;8.484;2022-11-13T08:09:36;11.13;;;10.13;;
8958;SDS011;4514;49.476;8.484;2022-11-13T08:12:02;10.87;;;9.77;;
8958;SDS011;4514;49.476;8.484;2022-11-13T08:14:27;10.73;;;9.63;;
8958;SDS011;4514;49.476;8.484;2022-11-13T08:16:55;10.00;;;9.00;;
8958;SDS011;4514;49.476;8.484;2022-11-13T08:19:23;10.60;;;9.57;;
8958;SDS011;4514;49.476;8.484;2022-11-13T08:21:48;10.43;;;9.33;;
8958;SDS011;4514;49.476;8.484;2022-11-13T08:24:14;9.30;;;8.40;;
8958;SDS011;4514;49.476;8.484;2022-11-13T08:26:39;9.13;;;8.30;;
8958;SDS011;4514;49.476;8.484;2022-11-13T08:29:05;9.13;;;8.30;;
8958;SDS011;4514;49.476;8.484;2022-11-13T08:31:31;12.73;;;11.03;;
8958;SDS011;4514;49.476;8.484;2022-11-13T08:33:56;14.90;;;11.90;;
8958;SDS011;4514;49.476;8.484;2022-11-13T08:36:26;19.67;;;13.67;;
8958;SDS011;4514;49.476;8.484;2022-11-13T08:38:51;18.63;;;14.13;;
8958;SDS011;4514;49.476;8.484;2022-11-13T08:41:18;20.43;;;14.97;;
8958;SDS011;4514;49.476;8.484;2022-11-13T08:43:44;32.13;;;19.53;;
8958;SDS011;4514;49.476;8.484;2022-11-13T08:46:12;40.30;;;23.03;;
8958;SDS011;4514;49.476;8.484;2022-11-13T08:48:39;48.80;;;26.00;;
8958;SDS011;4514;49.476;8.484;2022-11-13T08:51:04;48.13;;;27.87;;
8958;SDS011;4514;49.476;8.484;2022-11-13T08:53:33;31.03;;;18.37;;
8958;SDS011;4514;49.476;8.484;2022-11-13T08:55:59;31.03;;;18.70;;
8958;SDS011;4514;49.476;8.484;2022-11-13T08:58:28;35.30;;;21.07;;
8958;SDS011;4514;49.476;8.484;2022-11-13T09:00:57;36.90;;;22.10;;
8958;SDS011;4514;49.476;8.484;2022-11-13T09:03:24;25.67;;;17.47;;
8958;SDS011;4514;49.476;8.484;2022-11-13T09:05:49;28.13;;;19.67;;
8958;SDS011;4514;49.476;8.484;2022-11-13T09:08:15;26.47;;;18.40;;
8958;SDS011;4514;49.476;8.484;2022-11-13T09:10:40;36.50;;;22.47;;
8958;SDS011;4514;49.476;8.484;2022-11-13T09:13:05;31.87;;;19.60;;
8958;SDS011;4514;49.476;8.484;2022-11-13T09:15:32;17.90;;;14.97;;
8958;SDS011;4514;49.476;8.484;2022-11-13T09:17:58;17.40;;;13.37;;
8958;SDS011;4514;49.476;8.484;2022-11-13T09:20:25;14.63;;;12.37;;
8958;SDS011;4514;49.476;8.484;2022-11-13T09:23:01;12.17;;;10.30;;
8958;SDS011;4514;49.476;8.484;2022-11-13T09:25:29;10.83;;;9.73;;
8958;SDS011;4514;49.476;8.484;2022-11-13T09:27:56;11.00;;;9.93;;
8958;SDS011;4514;49.476;8.484;2022-11-13T09:30:25;10.17;;;9.17;;
8958;SDS011;4514;49.476;8.484;2022-11-13T09:32:52;10.70;;;9.80;;
8958;SDS011;4514;49.476;8.484;2022-11-13T09:35:19;9.67;;;8.77;;
8958;SDS011;4514;49.476;8.484;2022-11-13T09:38:05;10.57;;;9.47;;
8958;SDS011;4514;49.476;8.484;2022-11-13T09:40:36;11.17;;;10.03;;
8958;SDS011;4514;49.476;8.484;2022-11-13T09:43:08;12.03;;;10.83;;
8958;SDS011;4514;49.476;8.484;2022-11-13T09:45:38;10.43;;;9.50;;
8958;SDS011;4514;49.476;8.484;2022-11-13T09:48:19;10.63;;;9.63;;
8958;SDS011;4514;49.476;8.484;2022-11-13T09:50:52;11.60;;;10.40;;
8958;SDS011;4514;49.476;8.484;2022-11-13T09:53:17;13.27;;;11.97;;
8958;SDS011;4514;49.476;8.484;2022-11-13T09:55:49;12.77;;;11.47;;
8958;SDS011;4514;49.476;8.484;2022-11-13T09:58:46;13.53;;;11.53;;
8958;SDS011;4514;49.476;8.484;2022-11-13T10:01:57;15.37;;;13.77;;
8958;SDS011;4514;49.476;8.484;2022-11-13T10:04:12;11.80;;;10.70;;
8958;SDS011;4514;49.476;8.484;2022-11-13T10:06:59;15.03;;;13.53;;
8958;SDS011;4514;49.476;8.484;2022-11-13T10:12:41;14.93;;;13.17;;
8958;SDS011;4514;49.476;8.484;2022-11-13T10:15:08;15.30;;;13.75;;
8958;SDS011;4514;49.476;8.484;2022-11-13T10:17:36;15.82;;;14.32;;
8958;SDS011;4514;49.476;8.484;2022-11-13T10:20:51;18.25;;;16.35;;
8958;SDS011;4514;49.476;8.484;2022-11-13T10:22:56;14.18;;;12.77;;
8958;SDS011;4514;49.476;8.484;2022-11-13T10:25:37;12.77;;;11.38;;
8958;SDS011;4514;49.476;8.484;2022-11-13T10:28:24;12.43;;;11.23;;
8958;SDS011;4514;49.476;8.484;2022-11-13T10:30:50;13.85;;;12.45;;
8958;SDS011;4514;49.476;8.484;2022-11-13T10:33:17;14.68;;;13.15;;
8958;SDS011;4514;49.476;8.484;2022-11-13T10:41:17;23.73;;;19.10;;
8958;SDS011;4514;49.476;8.484;2022-11-13T10:43:53;22.63;;;19.23;;
8958;SDS011;4514;49.476;8.484;2022-11-13T10:46:21;20.73;;;18.50;;
8958;SDS011;4514;49.476;8.484;2022-11-13T10:48:48;20.35;;;18.05;;
8958;SDS011;4514;49.476;8.484;2022-11-13T10:51:27;22.20;;;19.80;;
8958;SDS011;4514;49.476;8.484;2022-11-13T10:53:54;17.10;;;15.35;;
8958;SDS011;4514;49.476;8.484;2022-11-13T11:01:45;12.75;;;11.55;;
8958;SDS011;4514;49.476;8.484;2022-11-13T11:04:21;11.90;;;10.90;;
8958;SDS011;4514;49.476;8.484;2022-11-13T11:06:48;11.63;;;10.63;;
8958;SDS011;4514;49.476;8.484;2022-11-13T11:09:22;11.40;;;10.30;;
8958;SDS011;4514;49.476;8.484;2022-11-13T11:14:56;12.18;;;11.18;;
8958;SDS011;4514;49.476;8.484;2022-11-13T11:17:44;13.35;;;12.05;;
8958;SDS011;4514;49.476;8.484;2022-11-13T11:22:57;13.18;;;12.07;;
8958;SDS011;4514;49.476;8.484;2022-11-13T11:25:39;13.02;;;11.93;;
8958;SDS011;4514;49.476;8.484;2022-11-13T11:31:07;12.95;;;11.80;;
8958;SDS011;4514;49.476;8.484;2022-11-13T11:33:57;12.30;;;11.25;;
8958;SDS011;4514;49.476;8.484;2022-11-13T11:39:12;13.73;;;12.63;;
8958;SDS011;4514;49.476;8.484;2022-11-13T11:41:54;11.80;;;10.80;;
8958;SDS011;4514;49.476;8.484;2022-11-13T11:44:29;12.18;;;11.18;;
8958;SDS011;4514;49.476;8.484;2022-11-13T11:46:57;11.32;;;10.32;;
8958;SDS011;4514;49.476;8.484;2022-11-13T11:49:24;11.25;;;10.25;;
8958;SDS011;4514;49.476;8.484;2022-11-13T11:55:03;11.48;;;10.48;;
8958;SDS011;4514;49.476;8.484;2022-11-13T12:00:22;10.82;;;9.80;;
8958;SDS011;4514;49.476;8.484;2022-11-13T12:13:15;11.10;;;10.30;;
8958;SDS011;4514;49.476;8.484;2022-11-13T12:15:55;10.15;;;9.35;;
8958;SDS011;4514;49.476;8.484;2022-11-13T12:26:52;9.75;;;8.95;;
8958;SDS011;4514;49.476;8.484;2022-11-13T12:35:17;11.07;;;10.07;;
8958;SDS011;4514;49.476;8.484;2022-11-13T12:46:07;10.02;;;9.18;;
8958;SDS011;4514;49.476;8.484;2022-11-13T12:48:36;11.38;;;10.27;;
8958;SDS011;4514;49.476;8.484;2022-11-13T12:51:12;10.40;;;9.60;;
8958;SDS011;4514;49.476;8.484;2022-11-13T12:58:59;11.30;;;10.40;;
8958;SDS011;4514;49.476;8.484;2022-11-13T13:01:41;10.90;;;10.00;;
8958;SDS011;4514;49.476;8.484;2022-11-13T13:18:34;11.70;;;10.50;;
8958;SDS011;4514;49.476;8.484;2022-11-13T13:23:33;11.85;;;10.65;;
8958;SDS011;4514;49.476;8.484;2022-11-13T13:26:20;10.90;;;10.00;;
8958;SDS011;4514;49.476;8.484;2022-11-13T13:31:21;11.25;;;10.15;;
8958;SDS011;4514;49.476;8.484;2022-11-13T13:33:56;10.80;;;9.65;;
8958;SDS011;4514;49.476;8.484;2022-11-13T13:39:27;10.73;;;9.70;;
8958;SDS011;4514;49.476;8.484;2022-11-13T13:44:51;10.93;;;10.02;;
8958;SDS011;4514;49.476;8.484;2022-11-13T13:47:23;10.75;;;9.70;;
8958;SDS011;4514;49.476;8.484;2022-11-13T13:49:51;9.98;;;9.07;;
8958;SDS011;4514;49.476;8.484;2022-11-13T13:52:23;10.68;;;9.48;;
8958;SDS011;4514;49.476;8.484;2022-11-13T13:54:58;9.90;;;9.02;;
8958;SDS011;4514;49.476;8.484;2022-11-13T13:57:25;10.93;;;9.93;;
8958;SDS011;4514;49.476;8.484;2022-11-13T13:59:55;11.10;;;10.00;;
8958;SDS011;4514;49.476;8.484;2022-11-13T14:02:22;10.45;;;9.45;;
8958;SDS011;4514;49.476;8.484;2022-11-13T14:04:49;9.95;;;9.05;;
8958;SDS011;4514;49.476;8.484;2022-11-13T14:10:13;10.32;;;8.82;;
8958;SDS011;4514;49.476;8.484;2022-11-13T14:12:43;9.80;;;8.90;;
8958;SDS011;4514;49.476;8.484;2022-11-13T14:15:19;9.23;;;8.43;;
8958;SDS011;4514;49.476;8.484;2022-11-13T14:17:47;9.98;;;9.07;;
8958;SDS011;4514;49.476;8.484;2022-11-13T14:20:15;8.95;;;8.25;;
8958;SDS011;4514;49.476;8.484;2022-11-13T14:22:45;9.30;;;8.50;;
8958;SDS011;4514;49.476;8.484;2022-11-13T14:25:25;9.23;;;8.45;;
8958;SDS011;4514;49.476;8.484;2022-11-13T14:27:53;9.15;;;8.35;;
8958;SDS011;4514;49.476;8.484;2022-11-13T14:30:25;8.90;;;8.13;;
8958;SDS011;4514;49.476;8.484;2022-11-13T14:32:52;9.65;;;8.75;;
8958;SDS011;4514;49.476;8.484;2022-11-13T14:35:18;8.68;;;7.95;;
8958;SDS011;4514;49.476;8.484;2022-11-13T14:37:47;9.25;;;8.32;;
8958;SDS011;4514;49.476;8.484;2022-11-13T14:40:18;8.30;;;7.60;;
8958;SDS011;4514;49.476;8.484;2022-11-13T14:42:47;9.48;;;7.50;;
8958;SDS011;4514;49.476;8.484;2022-11-13T14:45:16;7.93;;;7.22;;
8958;SDS011;4514;49.476;8.484;2022-11-13T14:47:42;9.23;;;8.32;;
8958;SDS011;4514;49.476;8.484;2022-11-13T14:50:29;8.63;;;7.82;;
8958;SDS011;4514;49.476;8.484;2022-11-13T14:53:02;8.60;;;7.60;;
8958;SDS011;4514;49.476;8.484;2022-11-13T14:55:36;7.55;;;6.90;;
8958;SDS011;4514;49.476;8.484;2022-11-13T14:58:03;6.78;;;6.15;;
8958;SDS011;4514;49.476;8.484;2022-11-13T15:00:30;6.35;;;5.75;;
8958;SDS011;4514;49.476;8.484;2022-11-13T15:02:57;5.70;;;5.20;;
8958;SDS011;4514;49.476;8.484;2022-11-13T15:05:23;6.57;;;5.30;;
8958;SDS011;4514;49.476;8.484;2022-11-13T15:07:51;6.35;;;5.25;;
8958;SDS011;4514;49.476;8.484;2022-11-13T15:10:18;7.10;;;6.40;;
8958;SDS011;4514;49.476;8.484;2022-11-13T15:12:45;5.60;;;4.82;;
8958;SDS011;4514;49.476;8.484;2022-11-13T15:15:12;4.78;;;4.30;;
8958;SDS011;4514;49.476;8.484;2022-11-13T15:17:39;5.28;;;4.78;;
8958;SDS011;4514;49.476;8.484;2022-11-13T15:20:08;6.07;;;4.70;;
8958;SDS011;4514;49.476;8.484;2022-11-13T15:22:38;5.53;;;5.03;;
8958;SDS011;4514;49.476;8.484;2022-11-13T15:25:16;4.60;;;4.20;;
8958;SDS011;4514;49.476;8.484;2022-11-13T15:27:43;4.85;;;4.35;;
8958;SDS011;4514;49.476;8.484;2022-11-13T15:30:09;4.50;;;4.10;;
8958;SDS011;4514;49.476;8.484;2022-11-13T15:32:35;4.43;;;4.03;;
8958;SDS011;4514;49.476;8.484;2022-11-13T15:35:03;5.18;;;4.68;;
8958;SDS011;4514;49.476;8.484;2022-11-13T15:37:29;6.82;;;6.22;;
8958;SDS011;4514;49.476;8.484;2022-11-13T15:39:55;7.72;;;6.97;;
8958;SDS011;4514;49.476;8.484;2022-11-13T15:42:23;8.85;;;7.95;;
8958;SDS011;4514;49.476;8.484;2022-11-13T15:44:52;9.23;;;8.32;;
8958;SDS011;4514;49.476;8.484;2022-11-13T15:47:27;10.35;;;9.40;;
8958;SDS011;4514;49.476;8.484;2022-11-13T15:49:55;9.90;;;8.90;;
8958;SDS011;4514;49.476;8.484;2022-11-13T15:52:21;10.65;;;9.65;;
8958;SDS011;4514;49.476;8.484;2022-11-13T15:54:49;10.57;;;9.55;;
8958;SDS011;4514;49.476;8.484;2022-11-13T15:57:18;11.88;;;10.52;;
8958;SDS011;4514;49.476;8.484;2022-11-13T15:59:46;10.40;;;9.40;;
8958;SDS011;4514;49.476;8.484;2022-11-13T16:02:11;11.60;;;10.52;;
8958;SDS011;4514;49.476;8.484;2022-11-13T16:04:37;11.52;;;10.52;;
8958;SDS011;4514;49.476;8.484;2022-11-13T16:07:04;11.15;;;10.15;;
8958;SDS011;4514;49.476;8.484;2022-11-13T16:09:31;12.75;;;11.45;;
8958;SDS011;4514;49.476;8.484;2022-11-13T16:11:59;13.65;;;12.35;;
8958;SDS011;4514;49.476;8.484;2022-11-13T16:14:25;14.13;;;12.73;;
8958;SDS011;4514;49.476;8.484;2022-11-13T16:16:50;14.70;;;13.27;;
8958;SDS011;4514;49.476;8.484;2022-11-13T16:19:19;14.88;;;13.48;;
8958;SDS011;4514;49.476;8.484;2022-11-13T16:21:47;16.88;;;14.95;;
8958;SDS011;4514;49.476;8.484;2022-11-13T16:24:12;15.40;;;13.80;;
8958;SDS011;4514;49.476;8.484;2022-11-13T16:26:40;15.68;;;14.00;;
8958;SDS011;4514;49.476;8.484;2022-11-13T16:29:15;16.10;;;14.60;;
8958;SDS011;4514;49.476;8.484;2022-11-13T16:31:47;15.52;;;14.13;;
8958;SDS011;4514;49.476;8.484;2022-11-13T16:34:13;15.60;;;14.00;;
8958;SDS011;4514;49.476;8.484;2022-11-13T16:36:38;16.93;;;15.33;;
8958;SDS011;4514;49.476;8.484;2022-11-13T16:39:05;15.77;;;14.18;;
8958;SDS011;4514;49.476;8.484;2022-11-13T16:41:30;15.32;;;13.77;;
8958;SDS011;4514;49.476;8.484;2022-11-13T16:43:56;15.77;;;14.18;;
8958;SDS011;4514;49.476;8.484;2022-11-13T16:46:31;14.65;;;13.25;;